Time;durP1;ratioP1;P1;durP2;ratioP2;P2;SDS_P1;SDS_P2;PMS_P1;PMS_P2;Temp;Humidity;BMP_temperature;BMP_pressure;BME280_temperature;BME280_humidity;BME280_pressure;Samples;Min_cycle;Max_cycle;Signal;HPM_P1;HPM_P2
2022/02/17 01:09:58;;;;;;;8.07;2.73;;;11.50;99.90;;;;;;2614559;54;20494;-80
2022/02/17 01:12:24;;;;;;;7.13;2.90;;;11.40;99.90;;;;;;2614454;47;20427;-80
2022/02/17 01:14:50;;;;;;;5.20;2.03;;;11.40;99.90;;;;;;2615191;54;20534;-80
2022/02/17 01:17:16;;;;;;;5.17;2.27;;;11.40;99.90;;;;;;2615260;47;20944;-80
2022/02/17 01:19:43;;;;;;;4.57;2.50;;;11.40;99.90;;;;;;2615505;46;20427;-85
2022/02/17 01:22:12;;;;;;;5.57;2.70;;;11.30;99.90;;;;;;2615340;54;20138;-84
2022/02/17 01:24:39;;;;;;;5.57;2.40;;;11.30;99.90;;;;;;2615570;54;20415;-83
2022/02/17 01:27:05;;;;;;;10.57;3.53;;;11.20;99.90;;;;;;2615972;54;20467;-83
2022/02/17 01:29:34;;;;;;;7.77;3.20;;;11.20;99.90;;;;;;2614497;47;20435;-83
2022/02/17 01:32:00;;;;;;;13.30;3.80;;;11.20;99.90;;;;;;2615379;47;20471;-83
2022/02/17 01:34:29;;;;;;;5.97;3.73;;;11.30;99.90;;;;;;2617151;39;20853;-84
2022/02/17 01:36:57;;;;;;;8.67;3.70;;;11.20;99.90;;;;;;2616266;47;20968;-85
2022/02/17 01:39:24;;;;;;;5.23;3.03;;;11.20;99.90;;;;;;2615002;47;20442;-85
2022/02/17 01:41:50;;;;;;;6.60;4.70;;;11.10;99.90;;;;;;2615545;54;20518;-82
2022/02/17 01:44:28;;;;;;;4.20;3.50;;;11.00;99.90;;;;;;2614848;54;20403;-80
2022/02/17 01:47:08;;;;;;;7.10;5.13;;;11.00;99.90;;;;;;2615241;51;20407;-80
2022/02/17 02:00:21;;;;;;;13.37;5.07;;;10.80;99.90;;;;;;2615389;54;20416;-79
2022/02/17 02:02:47;;;;;;;12.10;6.53;;;10.70;99.90;;;;;;2615186;54;20415;-78
2022/02/17 02:05:18;;;;;;;17.57;5.90;;;10.70;99.90;;;;;;2614833;54;20160;-79
2022/02/17 02:07:45;;;;;;;17.50;5.97;;;10.60;99.90;;;;;;2614151;51;20415;-79
2022/02/17 02:10:24;;;;;;;31.57;6.23;;;10.60;99.90;;;;;;2614813;54;20567;-78
2022/02/17 02:12:50;;;;;;;12.33;5.40;;;10.50;99.90;;;;;;2615215;51;20430;-77
2022/02/17 02:16:06;;;;;;;9.53;5.50;;;10.60;99.90;;;;;;2615035;54;20584;-79
2022/02/17 02:18:33;;;;;;;20.60;5.17;;;10.60;99.90;;;;;;2614359;47;20439;-81
2022/02/17 02:20:59;;;;;;;8.73;3.40;;;10.50;99.90;;;;;;2614796;54;20395;-76
2022/02/17 02:23:37;;;;;;;16.03;3.40;;;10.60;99.90;;;;;;2617248;47;20975;-80
2022/02/17 02:26:06;;;;;;;8.80;2.63;;;10.70;99.90;;;;;;2617766;47;20391;-79
2022/02/17 02:28:33;;;;;;;17.90;5.03;;;10.60;99.90;;;;;;2617711;54;20408;-80
2022/02/17 02:31:02;;;;;;;16.03;2.93;;;10.40;99.90;;;;;;2616065;47;20427;-79
2022/02/17 02:33:28;;;;;;;14.00;3.90;;;10.20;99.90;;;;;;2614242;54;21329;-78
2022/02/17 02:35:56;;;;;;;25.03;4.37;;;10.20;99.90;;;;;;2614878;51;20425;-79
2022/02/17 02:38:24;;;;;;;16.23;7.23;;;10.50;99.90;;;;;;2615331;54;20428;-78
2022/02/17 02:40:51;;;;;;;7.53;3.43;;;10.30;99.90;;;;;;2614348;54;20456;-80
2022/02/17 02:43:42;;;;;;;9.20;4.67;;;10.40;99.90;;;;;;2615427;54;21490;-79
2022/02/17 02:46:11;;;;;;;10.20;4.50;;;10.40;99.90;;;;;;2617561;54;20434;-79
2022/02/17 02:48:39;;;;;;;19.10;4.77;;;10.40;99.90;;;;;;2617885;47;20422;-78
2022/02/17 02:51:09;;;;;;;11.67;3.93;;;10.40;99.90;;;;;;2616523;54;20415;-79
2022/02/17 02:53:35;;;;;;;11.57;4.57;;;10.70;99.90;;;;;;2617292;47;20458;-81
2022/02/17 02:56:01;;;;;;;11.47;4.13;;;10.80;99.90;;;;;;2616956;54;20432;-78
2022/02/17 02:58:27;;;;;;;15.73;5.30;;;11.00;99.90;;;;;;2615210;54;20435;-78
2022/02/17 03:00:53;;;;;;;22.53;4.67;;;11.00;99.90;;;;;;2616366;47;20436;-78
2022/02/17 03:03:19;;;;;;;11.90;3.37;;;10.90;99.90;;;;;;2617590;54;20415;-80
2022/02/17 03:05:48;;;;;;;8.20;3.20;;;10.80;99.90;;;;;;2616418;54;20426;-82
2022/02/17 03:08:16;;;;;;;13.73;2.90;;;10.90;99.90;;;;;;2617007;47;20189;-80
2022/02/17 03:10:44;;;;;;;9.57;4.27;;;10.80;99.90;;;;;;2616938;47;20423;-78
2022/02/17 03:13:30;;;;;;;13.97;3.67;;;10.90;99.90;;;;;;2618214;47;20423;-80
2022/02/17 03:15:56;;;;;;;10.00;3.47;;;10.90;99.90;;;;;;2618870;46;20398;-79
2022/02/17 03:18:24;;;;;;;13.23;3.23;;;10.80;99.90;;;;;;2618397;47;20386;-80
2022/02/17 03:20:50;;;;;;;15.47;3.60;;;11.00;99.90;;;;;;2618375;54;20387;-79
2022/02/17 03:23:20;;;;;;;32.33;5.43;;;11.00;99.90;;;;;;2617497;47;20152;-81
2022/02/17 03:25:48;;;;;;;11.30;3.50;;;11.10;99.90;;;;;;2617605;47;20939;-78
2022/02/17 03:28:46;;;;;;;11.63;3.53;;;11.10;99.90;;;;;;2617488;47;20379;-80
2022/02/17 03:31:14;;;;;;;14.67;4.20;;;11.10;99.90;;;;;;2617289;47;20421;-80
2022/02/17 03:33:52;;;;;;;9.17;3.50;;;11.20;99.90;;;;;;2617525;47;20385;-81
2022/02/17 03:36:24;;;;;;;17.53;5.47;;;11.10;99.90;;;;;;2618111;47;20391;-81
2022/02/17 03:38:56;;;;;;;15.90;4.77;;;11.20;99.90;;;;;;2619416;47;20389;-81
2022/02/17 03:41:49;;;;;;;15.23;4.50;;;11.10;99.90;;;;;;2619588;47;20399;-81
2022/02/17 03:44:18;;;;;;;10.27;3.13;;;11.20;99.90;;;;;;2620356;47;21000;-80
2022/02/17 03:47:14;;;;;;;15.73;4.00;;;11.30;99.90;;;;;;2621940;47;20368;-81
2022/02/17 03:50:01;;;;;;;16.93;3.97;;;11.50;99.90;;;;;;2623704;54;20422;-83
2022/02/17 03:52:33;;;;;;;17.83;4.53;;;11.40;99.90;;;;;;2624273;47;20442;-82
2022/02/17 03:55:15;;;;;;;17.77;4.60;;;11.40;99.90;;;;;;2627967;54;20396;-82
2022/02/17 04:00:26;;;;;;;12.50;2.93;;;11.40;99.90;;;;;;2619883;54;21034;-80
2022/02/17 04:02:55;;;;;;;7.47;3.10;;;11.40;99.90;;;;;;2619013;47;20430;-79
2022/02/17 04:05:23;;;;;;;13.57;4.10;;;11.50;99.90;;;;;;2619592;39;20784;-78
2022/02/17 04:07:56;;;;;;;13.30;3.97;;;11.50;99.90;;;;;;2619030;47;20413;-79
2022/02/17 04:10:24;;;;;;;14.70;4.47;;;11.50;99.90;;;;;;2619131;47;20522;-79
2022/02/17 04:12:52;;;;;;;11.17;3.10;;;11.50;99.90;;;;;;2618605;47;20407;-77
2022/02/17 04:15:19;;;;;;;20.67;5.03;;;11.50;99.90;;;;;;2618409;39;20789;-78
2022/02/17 04:17:45;;;;;;;8.10;3.23;;;11.40;99.90;;;;;;2617788;47;20728;-78
2022/02/17 04:20:20;;;;;;;24.13;3.93;;;11.50;99.90;;;;;;2617850;47;20427;-77
2022/02/17 04:22:59;;;;;;;19.33;3.77;;;11.40;99.90;;;;;;2617980;47;20429;-78
2022/02/17 04:25:54;;;;;;;11.57;3.37;;;11.50;99.90;;;;;;2618123;54;20402;-79
2022/02/17 04:28:37;;;;;;;11.77;3.83;;;11.50;99.90;;;;;;2618465;39;20797;-78
2022/02/17 04:31:06;;;;;;;18.60;4.13;;;11.40;99.90;;;;;;2618375;54;20412;-78
2022/02/17 04:33:39;;;;;;;11.43;4.13;;;11.30;99.90;;;;;;2618113;47;20957;-77
2022/02/17 04:36:15;;;;;;;15.73;4.27;;;11.00;99.90;;;;;;2618518;54;20407;-79
2022/02/17 04:38:42;;;;;;;14.43;3.77;;;10.80;99.90;;;;;;2617788;51;20419;-79
2022/02/17 04:43:55;;;;;;;18.37;5.83;;;10.90;99.90;;;;;;2619994;54;20426;-79
2022/02/17 04:46:21;;;;;;;14.83;3.60;;;11.00;99.90;;;;;;2619071;46;20399;-78
2022/02/17 04:48:47;;;;;;;16.23;3.07;;;11.20;99.90;;;;;;2619034;47;20225;-78
2022/02/17 04:51:14;;;;;;;17.40;4.57;;;11.10;99.90;;;;;;2618324;47;20395;-79
2022/02/17 04:53:40;;;;;;;18.90;6.00;;;10.90;99.90;;;;;;2618007;54;20438;-77
2022/02/17 04:56:06;;;;;;;11.53;3.13;;;11.30;99.90;;;;;;2618119;47;20442;-78
2022/02/17 04:58:37;;;;;;;28.23;6.10;;;11.30;99.90;;;;;;2617677;47;20431;-79
2022/02/17 05:01:03;;;;;;;17.53;4.53;;;11.30;99.90;;;;;;2618033;47;20500;-80
2022/02/17 05:03:50;;;;;;;16.80;3.40;;;11.40;99.90;;;;;;2617725;47;20959;-79
2022/02/17 05:06:18;;;;;;;12.27;5.03;;;11.40;99.90;;;;;;2618060;54;20515;-78
2022/02/17 05:08:55;;;;;;;15.90;5.10;;;11.40;99.90;;;;;;2618136;47;20427;-77
2022/02/17 05:11:21;;;;;;;18.57;5.57;;;11.40;99.90;;;;;;2618293;54;20391;-80
2022/02/17 05:13:49;;;;;;;13.87;3.37;;;11.30;99.90;;;;;;2618128;46;20151;-78
2022/02/17 05:16:16;;;;;;;13.17;4.10;;;11.30;99.90;;;;;;2617903;46;20408;-79
2022/02/17 05:18:45;;;;;;;18.83;3.83;;;11.40;99.90;;;;;;2618529;51;20419;-79
2022/02/17 05:21:17;;;;;;;17.67;4.27;;;11.50;99.90;;;;;;2618114;47;20446;-78
2022/02/17 05:24:01;;;;;;;17.07;4.80;;;11.40;99.90;;;;;;2618490;54;20447;-79
2022/02/17 05:26:56;;;;;;;15.13;5.07;;;11.30;99.90;;;;;;2618479;47;21003;-80
2022/02/17 05:29:36;;;;;;;23.97;5.00;;;11.30;99.90;;;;;;2618681;47;21051;-79
2022/02/17 05:32:26;;;;;;;16.07;4.43;;;11.40;99.90;;;;;;2617912;47;20506;-80
2022/02/17 05:35:04;;;;;;;17.83;4.73;;;11.20;99.90;;;;;;2618739;39;20827;-79
2022/02/17 05:37:56;;;;;;;9.07;3.87;;;11.30;99.90;;;;;;2618275;54;20434;-79
2022/02/17 05:40:51;;;;;;;11.17;5.07;;;11.20;99.90;;;;;;2618615;46;20459;-78
2022/02/17 05:43:17;;;;;;;14.10;4.47;;;11.20;99.90;;;;;;2619695;39;20828;-79
2022/02/17 05:45:43;;;;;;;19.17;6.20;;;11.20;99.90;;;;;;2618672;47;20391;-79
2022/02/17 05:48:08;;;;;;;14.13;4.13;;;11.30;99.90;;;;;;2618792;54;20368;-79
2022/02/17 05:50:36;;;;;;;18.97;6.10;;;11.30;99.90;;;;;;2618772;54;20150;-81
2022/02/17 05:53:03;;;;;;;14.83;5.03;;;11.30;99.90;;;;;;2618148;54;20954;-79
2022/02/17 05:55:30;;;;;;;12.90;3.97;;;11.10;99.90;;;;;;2618283;54;20403;-80
2022/02/17 05:57:58;;;;;;;12.77;5.77;;;11.10;99.90;;;;;;2618634;47;20409;-78
2022/02/17 06:00:24;;;;;;;20.63;5.40;;;11.10;99.90;;;;;;2618510;39;20547;-80
2022/02/17 06:02:50;;;;;;;28.30;6.00;;;11.20;99.90;;;;;;2619306;39;20828;-79
2022/02/17 06:05:16;;;;;;;12.83;4.83;;;11.20;99.90;;;;;;2618377;54;20400;-79
2022/02/17 06:07:44;;;;;;;22.13;5.30;;;11.10;99.90;;;;;;2618175;47;20557;-79
2022/02/17 06:10:11;;;;;;;20.33;5.90;;;11.10;99.90;;;;;;2618306;54;20400;-80
2022/02/17 06:12:45;;;;;;;22.07;6.43;;;11.10;99.90;;;;;;2618400;54;20940;-78
2022/02/17 06:15:13;;;;;;;17.67;4.83;;;11.00;99.90;;;;;;2618378;47;20415;-79
2022/02/17 06:17:41;;;;;;;12.10;3.93;;;11.10;99.90;;;;;;2619633;54;20418;-79
2022/02/17 06:20:09;;;;;;;20.93;4.70;;;11.10;99.90;;;;;;2620140;46;20424;-80
2022/02/17 06:22:48;;;;;;;13.13;4.27;;;11.10;99.90;;;;;;2618187;54;20413;-76
2022/02/17 06:25:17;;;;;;;19.30;6.30;;;10.90;99.90;;;;;;2617310;46;20458;-77
2022/02/17 06:27:43;;;;;;;35.27;6.07;;;11.00;99.90;;;;;;2617330;47;20380;-76
2022/02/17 06:30:10;;;;;;;13.30;5.00;;;11.00;99.90;;;;;;2617929;39;20836;-76
2022/02/17 06:32:58;;;;;;;20.03;4.30;;;11.00;99.90;;;;;;2617533;54;20450;-77
2022/02/17 06:35:29;;;;;;;14.07;4.57;;;11.00;99.90;;;;;;2617146;46;20444;-76
2022/02/17 06:37:55;;;;;;;8.43;3.40;;;11.00;99.90;;;;;;2617335;54;20403;-75
2022/02/17 06:40:22;;;;;;;19.73;3.60;;;11.00;99.90;;;;;;2617725;47;20404;-76
2022/02/17 06:42:49;;;;;;;15.80;4.00;;;11.00;99.90;;;;;;2617449;54;20392;-76
2022/02/17 06:45:17;;;;;;;19.10;5.10;;;10.90;99.90;;;;;;2617481;47;20454;-77
2022/02/17 06:47:44;;;;;;;9.63;5.10;;;11.00;99.90;;;;;;2617237;47;20969;-77
2022/02/17 06:50:17;;;;;;;13.60;4.10;;;11.00;99.90;;;;;;2617632;39;20791;-76
2022/02/17 06:52:42;;;;;;;9.00;3.73;;;10.80;99.90;;;;;;2617494;54;20391;-76
2022/02/17 06:55:08;;;;;;;17.77;5.10;;;10.80;99.90;;;;;;2617100;47;20454;-75
2022/02/17 06:57:34;;;;;;;21.67;5.13;;;10.90;99.90;;;;;;2617006;47;20155;-75
2022/02/17 07:00:03;;;;;;;20.97;6.43;;;10.90;99.90;;;;;;2617868;47;20511;-76
2022/02/17 07:02:33;;;;;;;17.97;5.80;;;11.10;99.90;;;;;;2617276;46;20523;-76
2022/02/17 07:05:01;;;;;;;2.90;2.30;;;11.10;99.90;;;;;;2617717;54;21050;-76
2022/02/17 07:07:27;;;;;;;16.97;3.53;;;10.60;99.90;;;;;;2617807;54;20419;-75
2022/02/17 07:09:54;;;;;;;12.13;4.67;;;9.20;99.90;;;;;;2616540;54;20419;-77
2022/02/17 07:12:20;;;;;;;19.50;4.13;;;8.40;99.90;;;;;;2617829;47;20423;-76
2022/02/17 07:14:46;;;;;;;14.40;4.60;;;8.10;99.90;;;;;;2618211;51;20434;-76
2022/02/17 07:17:12;;;;;;;17.00;4.50;;;8.10;99.90;;;;;;2618178;54;20150;-76
2022/02/17 07:19:39;;;;;;;16.67;4.93;;;8.00;99.90;;;;;;2618181;54;20454;-76
2022/02/17 07:22:05;;;;;;;16.87;5.17;;;8.00;99.90;;;;;;2618587;47;20189;-76
2022/02/17 07:24:30;;;;;;;7.17;2.93;;;8.00;99.90;;;;;;2617988;47;20423;-75
2022/02/17 07:26:56;;;;;;;10.87;2.63;;;7.80;99.90;;;;;;2636053;36;20232;-76
2022/02/17 07:29:22;;;;;;;12.40;2.90;;;7.80;99.90;;;;;;2617891;39;20702;-75
2022/02/17 07:31:52;;;;;;;10.10;3.97;;;7.70;99.90;;;;;;2617460;39;20693;-75
2022/02/17 07:34:21;;;;;;;10.97;3.70;;;7.80;99.90;;;;;;2616989;47;20442;-74
2022/02/17 07:36:47;;;;;;;8.30;2.63;;;7.70;99.90;;;;;;2618035;39;20984;-75
2022/02/17 07:39:14;;;;;;;10.77;4.03;;;7.80;99.90;;;;;;2617350;54;20419;-74
2022/02/17 07:41:40;;;;;;;12.73;3.83;;;8.00;99.90;;;;;;2617171;47;20450;-76
2022/02/17 07:44:08;;;;;;;19.80;5.83;;;8.20;99.90;;;;;;2617690;54;20961;-76
2022/02/17 07:46:34;;;;;;;11.77;4.13;;;8.30;99.90;;;;;;2616968;51;20967;-75
2022/02/17 07:49:04;;;;;;;19.03;3.67;;;8.50;99.90;;;;;;2617264;54;20423;-75
2022/02/17 07:51:31;;;;;;;23.47;5.40;;;8.90;99.90;;;;;;2616902;54;20429;-75
2022/02/17 07:53:57;;;;;;;17.93;5.10;;;9.00;99.90;;;;;;2616885;54;20406;-75
2022/02/17 07:56:22;;;;;;;13.70;4.27;;;9.20;99.90;;;;;;2616568;39;20813;-74
2022/02/17 07:58:48;;;;;;;18.00;4.53;;;9.90;99.90;;;;;;2616145;47;20196;-76
2022/02/17 08:01:15;;;;;;;22.30;3.77;;;10.60;99.90;;;;;;2616731;54;20167;-74
2022/02/17 08:03:42;;;;;;;8.20;3.03;;;11.00;99.90;;;;;;2616321;54;20526;-74
2022/02/17 08:06:08;;;;;;;20.37;3.90;;;11.30;99.90;;;;;;2615860;54;20422;-75
2022/02/17 08:08:34;;;;;;;9.87;3.83;;;10.80;99.90;;;;;;2616341;39;20818;-73
2022/02/17 08:11:01;;;;;;;14.73;4.57;;;10.80;99.90;;;;;;2616113;39;20646;-75
2022/02/17 08:13:27;;;;;;;4.67;2.67;;;11.50;99.90;;;;;;2615552;47;20423;-75
2022/02/17 08:15:55;;;;;;;9.47;3.70;;;11.70;99.90;;;;;;2616840;54;20410;-75
2022/02/17 08:18:22;;;;;;;19.33;3.47;;;11.30;99.90;;;;;;2617281;54;20441;-75
2022/02/17 08:20:49;;;;;;;6.40;2.50;;;11.00;99.90;;;;;;2617147;47;21077;-75
2022/02/17 08:23:15;;;;;;;9.47;3.17;;;10.80;99.90;;;;;;2616912;54;20494;-74
2022/02/17 08:25:41;;;;;;;6.07;1.97;;;10.60;99.90;;;;;;2616016;47;20433;-74
2022/02/17 08:28:06;;;;;;;9.60;2.43;;;9.80;99.90;;;;;;2617485;54;20391;-75
2022/02/17 08:30:36;;;;;;;13.10;3.17;;;8.70;99.90;;;;;;2618532;47;20200;-74
2022/02/17 08:33:03;;;;;;;5.60;2.20;;;8.10;99.90;;;;;;2618804;54;20399;-74
2022/02/17 08:35:30;;;;;;;6.07;1.77;;;7.60;99.90;;;;;;2619179;54;20425;-75
2022/02/17 08:37:56;;;;;;;10.60;2.83;;;7.30;99.90;;;;;;2618929;54;20974;-75
2022/02/17 08:40:23;;;;;;;15.10;3.30;;;7.40;99.90;;;;;;2619757;39;20780;-75
2022/02/17 08:42:49;;;;;;;22.90;5.07;;;7.40;99.90;;;;;;2618793;54;20396;-75
2022/02/17 08:45:15;;;;;;;14.83;4.50;;;7.50;99.90;;;;;;2619486;39;20812;-76
2022/02/17 08:47:42;;;;;;;17.30;4.03;;;7.60;99.90;;;;;;2618819;47;20395;-76
2022/02/17 08:50:11;;;;;;;13.90;4.70;;;7.80;99.90;;;;;;2619013;47;20395;-75
2022/02/17 08:52:39;;;;;;;14.57;3.83;;;8.60;99.90;;;;;;2618235;47;20382;-76
2022/02/17 08:55:07;;;;;;;12.30;4.17;;;9.10;99.90;;;;;;2617961;47;20399;-76
2022/02/17 08:57:33;;;;;;;17.23;3.57;;;9.60;99.90;;;;;;2618276;54;20400;-76
2022/02/17 08:59:59;;;;;;;19.73;4.53;;;10.20;99.90;;;;;;2618141;54;20438;-76
2022/02/17 09:02:25;;;;;;;21.67;4.50;;;10.40;99.90;;;;;;2617826;54;20502;-76
2022/02/17 09:04:51;;;;;;;10.43;2.60;;;10.90;99.90;;;;;;2618359;39;20795;-76
2022/02/17 09:07:17;;;;;;;6.10;2.40;;;11.20;99.90;;;;;;2617174;54;20275;-75
2022/02/17 09:09:43;;;;;;;11.00;3.30;;;11.20;99.90;;;;;;2617872;39;20647;-75
2022/02/17 09:12:10;;;;;;;13.00;3.03;;;11.50;99.90;;;;;;2617655;54;20414;-75
2022/02/17 09:14:36;;;;;;;5.37;2.30;;;12.00;99.90;;;;;;2617202;47;20430;-74
2022/02/17 09:17:04;;;;;;;5.87;2.67;;;11.60;99.90;;;;;;2617306;47;20479;-75
2022/02/17 09:19:31;;;;;;;12.20;2.90;;;11.20;99.90;;;;;;2617725;54;20399;-75
2022/02/17 09:21:59;;;;;;;4.93;2.50;;;10.80;99.90;;;;;;2616885;47;20423;-75
2022/02/17 09:24:26;;;;;;;10.83;2.30;;;10.30;99.90;;;;;;2617295;54;20396;-75
2022/02/17 09:26:51;;;;;;;6.27;2.47;;;10.10;99.90;;;;;;2617019;47;20407;-74
2022/02/17 09:29:17;;;;;;;13.40;3.80;;;10.00;99.90;;;;;;2617166;39;20884;-74
2022/02/17 09:31:44;;;;;;;9.90;2.90;;;10.50;99.90;;;;;;2616797;54;20198;-74
2022/02/17 09:34:11;;;;;;;11.23;3.20;;;11.00;99.90;;;;;;2617455;54;20265;-74
2022/02/17 09:36:38;;;;;;;15.17;3.00;;;11.20;99.90;;;;;;2617267;47;20447;-75
2022/02/17 09:39:06;;;;;;;9.47;3.97;;;11.70;99.90;;;;;;2617784;47;20457;-75
2022/02/17 09:41:32;;;;;;;5.90;2.97;;;11.70;99.90;;;;;;2617601;47;20971;-75
2022/02/17 09:44:08;;;;;;;11.40;3.87;;;11.40;99.90;;;;;;2616810;54;20430;-74
2022/02/17 09:46:36;;;;;;;14.33;3.77;;;11.60;99.90;;;;;;2617947;39;20518;-75
2022/02/17 09:49:03;;;;;;;7.93;3.40;;;11.40;99.90;;;;;;2617295;47;20406;-75
2022/02/17 09:51:32;;;;;;;7.10;2.77;;;11.30;99.90;;;;;;2617553;54;20967;-74
2022/02/17 09:53:59;;;;;;;10.67;2.50;;;11.30;99.90;;;;;;2617043;47;20424;-75
2022/02/17 09:56:26;;;;;;;10.73;2.17;;;11.40;99.90;;;;;;2618710;54;20538;-76
2022/02/17 09:58:53;;;;;;;17.37;5.03;;;11.90;99.90;;;;;;2620031;47;20446;-76
2022/02/17 10:01:27;;;;;;;10.30;2.50;;;11.80;99.90;;;;;;2620734;54;20434;-73
2022/02/17 10:04:18;;;;;;;9.47;2.73;;;11.70;99.90;;;;;;2621559;39;20894;-76
2022/02/17 10:06:49;;;;;;;7.07;2.30;;;11.60;99.90;;;;;;2619886;54;20423;-74
2022/02/17 10:09:16;;;;;;;6.70;2.33;;;11.10;99.90;;;;;;2620195;46;20449;-75
2022/02/17 10:11:43;;;;;;;7.70;2.40;;;11.00;99.90;;;;;;2620879;54;20999;-74
2022/02/17 10:14:15;;;;;;;3.77;2.50;;;11.00;99.90;;;;;;2621310;54;20982;-75
2022/02/17 10:16:55;;;;;;;20.40;2.43;;;11.30;99.90;;;;;;2618270;39;20841;-76
2022/02/17 10:19:27;;;;;;;9.17;2.53;;;11.20;99.90;;;;;;2617125;39;20770;-75
2022/02/17 10:22:23;;;;;;;9.30;2.63;;;11.00;99.90;;;;;;2617254;47;21023;-76
2022/02/17 10:24:51;;;;;;;8.00;2.90;;;11.10;99.90;;;;;;2617266;54;20452;-75
2022/02/17 10:27:23;;;;;;;6.53;3.73;;;10.90;99.90;;;;;;2617874;54;20427;-75
2022/02/17 10:30:13;;;;;;;7.77;2.20;;;10.80;99.90;;;;;;2617053;47;20416;-75
2022/02/17 10:32:58;;;;;;;7.37;2.50;;;11.00;99.90;;;;;;2616966;54;20407;-76
2022/02/17 10:35:25;;;;;;;8.83;2.13;;;11.10;99.90;;;;;;2617225;47;20435;-76
2022/02/17 10:37:57;;;;;;;8.10;3.03;;;11.80;99.90;;;;;;2616435;54;20402;-76
2022/02/17 10:40:24;;;;;;;8.70;2.70;;;11.80;99.90;;;;;;2616917;47;20884;-75
2022/02/17 10:43:11;;;;;;;12.63;3.10;;;12.20;99.90;;;;;;2616550;47;20995;-76
2022/02/17 10:45:39;;;;;;;10.60;2.30;;;12.40;99.90;;;;;;2615458;54;20443;-75
2022/02/17 10:48:23;;;;;;;8.07;2.10;;;12.00;99.90;;;;;;2615887;54;20405;-75
2022/02/17 10:51:05;;;;;;;7.37;3.37;;;10.70;99.90;;;;;;2616471;39;20942;-76
2022/02/17 10:53:35;;;;;;;19.10;4.60;;;10.30;99.90;;;;;;2616581;47;20424;-75
2022/02/17 10:56:07;;;;;;;4.23;2.70;;;10.30;99.90;;;;;;2616529;54;20414;-76
2022/02/17 10:58:37;;;;;;;16.07;3.20;;;11.00;99.90;;;;;;2616371;54;20405;-76
2022/02/17 11:01:05;;;;;;;5.03;3.10;;;12.40;99.90;;;;;;2616263;54;21006;-77
2022/02/17 11:03:35;;;;;;;9.73;2.43;;;13.70;99.90;;;;;;2616037;47;20438;-76
2022/02/17 11:06:02;;;;;;;5.13;2.30;;;14.40;99.90;;;;;;2616044;47;20434;-76
2022/02/17 11:08:29;;;;;;;6.47;2.23;;;14.10;99.90;;;;;;2617183;39;20795;-76
2022/02/17 11:10:59;;;;;;;3.33;1.83;;;14.30;99.90;;;;;;2617678;39;20847;-77
2022/02/17 11:13:26;;;;;;;4.40;2.27;;;14.80;99.90;;;;;;2616751;47;20423;-77
2022/02/17 11:15:56;;;;;;;5.67;1.73;;;14.80;99.90;;;;;;2616952;47;20522;-77
2022/02/17 11:18:23;;;;;;;3.87;2.27;;;14.60;99.90;;;;;;2617990;54;20469;-78
2022/02/17 11:20:53;;;;;;;4.63;2.27;;;14.00;99.90;;;;;;2619196;54;20725;-79
2022/02/17 11:23:31;;;;;;;2.07;1.77;;;13.50;99.90;;;;;;2618328;54;20399;-79
2022/02/17 11:25:58;;;;;;;5.13;1.93;;;13.90;98.60;;;;;;2618338;47;20526;-80
2022/02/17 11:28:37;;;;;;;3.40;1.90;;;14.10;92.70;;;;;;2618510;47;20430;-81
2022/02/17 11:31:11;;;;;;;5.60;1.80;;;13.70;92.60;;;;;;2617757;51;20425;-80
2022/02/17 11:33:52;;;;;;;5.10;2.40;;;14.00;92.50;;;;;;2617709;47;20422;-79
2022/02/17 11:36:22;;;;;;;4.57;2.10;;;13.70;88.60;;;;;;2617414;47;20427;-78
2022/02/17 11:38:52;;;;;;;2.93;1.73;;;13.60;93.70;;;;;;2617583;54;20412;-78
2022/02/17 11:41:22;;;;;;;6.13;2.17;;;14.10;92.80;;;;;;2617541;47;20419;-78
2022/02/17 11:43:52;;;;;;;3.17;1.80;;;13.80;87.90;;;;;;2617441;47;20419;-77
2022/02/17 11:46:41;;;;;;;9.80;2.17;;;13.00;90.10;;;;;;2617680;47;20413;-79
2022/02/17 11:49:35;;;;;;;5.23;2.23;;;12.40;91.60;;;;;;2617836;47;20416;-79
2022/02/17 11:52:23;;;;;;;16.80;1.70;;;11.80;97.90;;;;;;2617435;47;20965;-78
2022/02/17 11:55:10;;;;;;;2.50;1.83;;;11.40;99.90;;;;;;2617614;47;20427;-79
2022/02/17 11:57:38;;;;;;;3.03;1.80;;;11.20;99.90;;;;;;2618475;47;20431;-79
2022/02/17 12:00:17;;;;;;;8.23;2.57;;;11.00;99.00;;;;;;2618492;54;21085;-79
2022/02/17 12:03:06;;;;;;;15.10;2.80;;;11.10;99.90;;;;;;2619028;39;20909;-79
2022/02/17 12:05:32;;;;;;;5.07;2.03;;;10.90;99.90;;;;;;2617956;54;20444;-80
2022/02/17 12:08:22;;;;;;;7.37;2.13;;;11.00;99.90;;;;;;2617798;47;20501;-79
2022/02/17 12:10:49;;;;;;;4.47;2.00;;;11.40;99.90;;;;;;2618119;47;20405;-78
2022/02/17 12:13:25;;;;;;;3.70;2.10;;;11.30;99.90;;;;;;2617739;47;20444;-78
2022/02/17 12:16:37;;;;;;;11.47;2.43;;;11.90;99.90;;;;;;2617263;47;20422;-78
2022/02/17 12:19:10;;;;;;;2.40;1.80;;;12.90;93.70;;;;;;2617471;47;20388;-78
2022/02/17 12:21:38;;;;;;;11.10;2.27;;;13.00;92.30;;;;;;2617998;54;21083;-78
2022/02/17 12:24:05;;;;;;;14.37;4.53;;;13.40;88.20;;;;;;2617987;54;20417;-79
2022/02/17 12:26:39;;;;;;;7.47;2.10;;;13.40;74.20;;;;;;2618083;47;20416;-79
2022/02/17 12:29:50;;;;;;;6.03;2.10;;;13.70;79.30;;;;;;2618041;47;20436;-76
2022/02/17 12:32:18;;;;;;;6.87;1.77;;;13.60;74.20;;;;;;2617833;54;20386;-78
2022/02/17 12:34:44;;;;;;;12.00;3.30;;;14.00;72.50;;;;;;2617883;47;20407;-77
2022/02/17 12:37:19;;;;;;;5.97;1.90;;;13.80;69.90;;;;;;2617880;47;20536;-78
2022/02/17 12:40:26;;;;;;;2.83;1.50;;;13.90;74.40;;;;;;2617780;54;20500;-77
2022/02/17 12:42:53;;;;;;;4.83;2.27;;;13.90;67.20;;;;;;2617466;47;20395;-78
2022/02/17 12:45:42;;;;;;;6.30;1.70;;;13.80;71.40;;;;;;2617633;54;21042;-79
2022/02/17 12:48:09;;;;;;;5.60;2.10;;;13.70;71.10;;;;;;2618159;31;20847;-78
2022/02/17 12:50:41;;;;;;;4.90;1.43;;;12.70;73.00;;;;;;2617416;47;20410;-78
2022/02/17 12:53:46;;;;;;;4.43;1.43;;;12.10;85.00;;;;;;2617976;54;20485;-77
2022/02/17 12:56:22;;;;;;;3.23;1.70;;;12.90;84.90;;;;;;2617633;54;20392;-78
2022/02/17 12:58:51;;;;;;;7.20;1.67;;;13.10;82.60;;;;;;2617855;47;20508;-78
2022/02/17 13:01:25;;;;;;;3.20;1.40;;;13.50;76.80;;;;;;2618354;31;20954;-77
2022/02/17 13:03:51;;;;;;;1.83;1.20;;;13.30;80.80;;;;;;2618201;47;20452;-77
2022/02/17 13:06:22;;;;;;;2.43;1.33;;;12.60;80.60;;;;;;2618391;54;20383;-78
2022/02/17 13:08:54;;;;;;;7.47;1.80;;;12.60;85.90;;;;;;2619489;31;20868;-77
2022/02/17 13:11:27;;;;;;;3.93;1.70;;;13.20;83.00;;;;;;2618859;39;20766;-77
2022/02/17 13:14:10;;;;;;;6.37;2.30;;;13.20;74.10;;;;;;2618445;47;20467;-78
2022/02/17 13:16:47;;;;;;;4.90;1.40;;;13.40;81.70;;;;;;2618423;47;20421;-78
2022/02/17 13:19:50;;;;;;;5.73;1.90;;;13.60;74.60;;;;;;2618137;54;20403;-79
2022/02/17 13:22:17;;;;;;;4.53;1.80;;;14.30;70.10;;;;;;2618611;54;20438;-78
2022/02/17 13:24:51;;;;;;;4.93;1.97;;;14.20;67.40;;;;;;2618292;54;20403;-77
2022/02/17 13:27:21;;;;;;;3.83;2.10;;;13.50;66.50;;;;;;2618387;46;20435;-78
2022/02/17 13:30:02;;;;;;;3.23;1.53;;;12.70;73.80;;;;;;2618202;47;20399;-78
2022/02/17 13:32:32;;;;;;;9.27;2.30;;;12.30;80.90;;;;;;2619023;54;20407;-79
2022/02/17 13:35:15;;;;;;;1.23;1.13;;;12.20;95.00;;;;;;2619869;54;21030;-77
2022/02/17 13:38:02;;;;;;;7.40;2.23;;;11.60;99.90;;;;;;2618552;54;20425;-78
2022/02/17 13:40:41;;;;;;;6.13;2.10;;;11.00;99.90;;;;;;2619256;54;20430;-79
2022/02/17 13:43:09;;;;;;;6.17;2.30;;;10.80;99.90;;;;;;2619438;39;20832;-78
2022/02/17 13:45:37;;;;;;;3.43;1.73;;;10.80;99.90;;;;;;2618489;47;20426;-80
2022/02/17 13:48:06;;;;;;;8.03;2.00;;;10.70;99.90;;;;;;2618672;47;20423;-79
2022/02/17 13:50:33;;;;;;;6.93;2.30;;;10.70;99.90;;;;;;2618729;47;20986;-80
2022/02/17 13:52:58;;;;;;;5.20;1.93;;;10.90;99.90;;;;;;2618907;47;20520;-77
2022/02/17 13:55:25;;;;;;;5.80;1.80;;;11.20;99.90;;;;;;2623003;54;20395;-84
2022/02/17 13:57:51;;;;;;;10.20;1.97;;;11.30;99.90;;;;;;2624275;46;20692;-82
2022/02/17 14:00:17;;;;;;;4.50;2.10;;;11.40;99.90;;;;;;2623595;47;20403;-81
2022/02/17 14:02:43;;;;;;;3.67;2.03;;;11.40;99.90;;;;;;2626032;39;20831;-83
2022/02/17 14:05:09;;;;;;;5.03;1.57;;;11.20;99.90;;;;;;2621965;47;20462;-79
2022/02/17 14:07:39;;;;;;;6.20;1.80;;;11.10;99.90;;;;;;2621886;47;20416;-79
2022/02/17 14:10:09;;;;;;;3.23;1.50;;;11.00;99.90;;;;;;2622728;47;20384;-80
2022/02/17 14:12:36;;;;;;;6.63;2.07;;;11.10;99.90;;;;;;2622267;46;20387;-79
2022/02/17 14:15:04;;;;;;;5.13;2.43;;;11.20;99.90;;;;;;2621734;54;20512;-80
2022/02/17 14:17:33;;;;;;;3.40;1.83;;;11.50;99.90;;;;;;2621793;47;20410;-80
2022/02/17 14:20:00;;;;;;;8.87;2.30;;;12.10;97.70;;;;;;2622078;46;20533;-78
2022/02/17 14:22:27;;;;;;;8.40;2.87;;;12.70;95.90;;;;;;2620841;46;20391;-78
2022/02/17 14:24:53;;;;;;;5.03;1.77;;;13.00;90.80;;;;;;2621284;47;20391;-80
2022/02/17 14:27:21;;;;;;;8.13;2.30;;;13.10;92.50;;;;;;2620782;47;20431;-81
2022/02/17 14:29:47;;;;;;;5.00;1.90;;;13.60;91.50;;;;;;2621493;39;20867;-81